createdAt,value
2018-07-21T00:00:45.178Z,5.70
2018-07-21T00:03:13.668Z,6.83
2018-07-21T00:05:42.133Z,6.43
2018-07-21T00:08:10.624Z,6.67
2018-07-21T00:10:39.105Z,6.77
2018-07-21T00:13:07.652Z,6.23
2018-07-21T00:15:36.466Z,6.67
2018-07-21T00:18:05.344Z,7.00
2018-07-21T00:20:33.783Z,6.60
2018-07-21T00:23:02.294Z,6.97
2018-07-21T00:25:30.840Z,6.73
2018-07-21T00:27:59.499Z,6.97
2018-07-21T00:30:28.007Z,6.77
2018-07-21T00:32:56.523Z,6.77
2018-07-21T00:35:25.043Z,6.47
2018-07-21T00:37:53.523Z,6.80
2018-07-21T00:40:22.067Z,6.77
2018-07-21T00:42:50.575Z,6.83
2018-07-21T00:45:19.462Z,7.00
2018-07-21T00:47:47.940Z,6.53
2018-07-21T00:50:16.502Z,6.40
2018-07-21T00:52:44.961Z,6.10
2018-07-21T00:55:13.465Z,6.40
2018-07-21T00:57:41.946Z,6.53
2018-07-21T01:00:10.872Z,6.33
2018-07-21T01:02:39.328Z,6.30
2018-07-21T01:05:07.567Z,5.57
2018-07-21T01:07:36.381Z,6.23
2018-07-21T01:10:06.142Z,6.07
2018-07-21T01:12:34.654Z,6.40
2018-07-21T01:15:03.589Z,6.10
2018-07-21T01:17:32.046Z,6.13
2018-07-21T01:20:00.546Z,6.20
2018-07-21T01:22:29.108Z,6.13
2018-07-21T01:24:57.639Z,6.27
2018-07-21T01:27:26.098Z,5.93
2018-07-21T01:29:54.600Z,6.23
2018-07-21T01:32:23.061Z,5.80
2018-07-21T01:34:51.591Z,6.50
2018-07-21T01:37:20.075Z,5.47
2018-07-21T01:39:48.581Z,5.97
2018-07-21T01:42:17.062Z,6.13
2018-07-21T01:44:45.624Z,6.23
2018-07-21T01:47:14.135Z,6.70
2018-07-21T01:49:42.666Z,6.60
2018-07-21T01:52:11.173Z,6.13
2018-07-21T01:54:39.691Z,6.43
2018-07-21T01:57:08.840Z,6.20
2018-07-21T01:59:37.324Z,5.93
2018-07-21T02:02:05.826Z,6.67
2018-07-21T02:04:34.388Z,5.97
2018-07-21T02:07:02.895Z,6.97
2018-07-21T02:09:31.370Z,5.93
2018-07-21T02:11:59.837Z,5.83
2018-07-21T02:14:28.341Z,6.40
2018-07-21T02:16:56.814Z,7.13
2018-07-21T02:19:24.994Z,6.70
2018-07-21T02:21:53.483Z,6.80
2018-07-21T02:24:21.979Z,6.80
2018-07-21T02:26:50.460Z,6.97
2018-07-21T02:29:18.943Z,6.10
2018-07-21T02:31:47.438Z,6.73
2018-07-21T02:34:16.255Z,6.47
2018-07-21T02:36:44.752Z,6.70
2018-07-21T02:39:13.332Z,6.50
2018-07-21T02:41:41.984Z,6.13
2018-07-21T02:44:10.591Z,6.80
2018-07-21T02:46:39.030Z,6.27
2018-07-21T02:49:07.480Z,6.60
2018-07-21T02:51:35.986Z,6.87
2018-07-21T02:54:04.515Z,7.20
2018-07-21T02:56:33.024Z,7.20
2018-07-21T02:59:01.552Z,7.70
2018-07-21T03:01:30.048Z,7.83
2018-07-21T03:03:58.560Z,7.40
2018-07-21T03:06:27.063Z,7.93
2018-07-21T03:08:55.544Z,7.13
2018-07-21T03:11:23.996Z,7.70
2018-07-21T03:13:52.851Z,7.23
2018-07-21T03:16:21.316Z,7.53
2018-07-21T03:18:50.166Z,7.80
2018-07-21T03:21:18.620Z,8.20
2018-07-21T03:23:47.065Z,7.57
2018-07-21T03:26:15.591Z,8.00
2018-07-21T03:28:44.034Z,7.90
2018-07-21T03:31:12.841Z,7.90
2018-07-21T03:33:41.332Z,7.47
2018-07-21T03:36:09.814Z,7.30
2018-07-21T03:38:38.302Z,6.87
2018-07-21T03:41:06.899Z,7.13
2018-07-21T03:43:35.371Z,6.77
2018-07-21T03:46:03.849Z,7.27
2018-07-21T03:48:32.289Z,7.37
2018-07-21T03:51:00.771Z,7.80
2018-07-21T03:53:29.261Z,7.90
2018-07-21T03:55:58.202Z,7.77
2018-07-21T03:58:26.642Z,7.80
2018-07-21T04:00:55.127Z,7.07
2018-07-21T04:03:23.579Z,7.77
2018-07-21T04:05:52.104Z,6.53
2018-07-21T04:08:20.579Z,7.93
2018-07-21T04:10:49.095Z,6.93
2018-07-21T04:13:17.576Z,7.70
2018-07-21T04:15:46.088Z,7.87
2018-07-21T04:18:14.540Z,7.70
2018-07-21T04:20:43.067Z,8.47
2018-07-21T04:23:11.511Z,7.40
2018-07-21T04:25:39.982Z,7.53
2018-07-21T04:28:08.467Z,6.63
2018-07-21T04:30:36.928Z,7.03
2018-07-21T04:33:05.511Z,7.27
2018-07-21T04:35:34.627Z,8.43
2018-07-21T04:38:03.127Z,7.63
2018-07-21T04:40:31.588Z,7.90
2018-07-21T04:43:00.088Z,7.60
2018-07-21T04:45:28.583Z,7.30
2018-07-21T04:47:57.080Z,8.07
2018-07-21T04:50:25.556Z,7.90
2018-07-21T04:52:54.087Z,8.30
2018-07-21T04:55:22.573Z,8.63
2018-07-21T04:57:51.044Z,7.97
2018-07-21T05:00:19.869Z,8.23
2018-07-21T05:02:48.324Z,8.33
2018-07-21T05:05:16.824Z,7.67
2018-07-21T05:07:45.273Z,7.77
2018-07-21T05:10:13.954Z,7.60
2018-07-21T05:12:42.749Z,7.53
2018-07-21T05:15:11.769Z,7.53
2018-07-21T05:17:40.513Z,6.90
2018-07-21T05:20:09.077Z,7.50
2018-07-21T05:22:37.659Z,7.03
2018-07-21T05:25:06.396Z,7.70
2018-07-21T05:27:34.832Z,7.50
2018-07-21T05:30:03.361Z,7.70
2018-07-21T05:32:31.843Z,7.90
2018-07-21T05:35:00.658Z,7.23
2018-07-21T05:37:29.627Z,7.03
2018-07-21T05:39:58.088Z,6.67
2018-07-21T05:42:34.782Z,6.70
2018-07-21T05:45:04.404Z,6.80
2018-07-21T05:47:32.965Z,7.00
2018-07-21T05:50:01.633Z,6.67
2018-07-21T05:52:30.106Z,6.80
2018-07-21T05:54:58.583Z,7.57
2018-07-21T05:57:27.148Z,7.73
2018-07-21T05:59:55.662Z,7.37
2018-07-21T06:02:24.102Z,7.00
2018-07-21T06:04:52.567Z,6.20
2018-07-21T06:07:21.014Z,6.50
2018-07-21T06:09:49.536Z,7.37
2018-07-21T06:12:18.329Z,6.60
2018-07-21T06:14:46.783Z,6.43
2018-07-21T06:17:15.272Z,8.50
2018-07-21T06:19:43.724Z,7.23
2018-07-21T06:22:12.259Z,6.73
2018-07-21T06:24:40.756Z,6.70
2018-07-21T06:27:09.283Z,6.77
2018-07-21T06:29:37.832Z,7.43
2018-07-21T06:32:07.055Z,8.43
2018-07-21T06:34:35.512Z,7.43
2018-07-21T06:37:04.023Z,6.97
2018-07-21T06:39:32.146Z,7.67
2018-07-21T06:42:00.616Z,6.37
2018-07-21T06:44:29.421Z,7.33
2018-07-21T06:46:57.919Z,7.17
2018-07-21T06:49:26.388Z,6.63
2018-07-21T06:52:04.242Z,6.20
2018-07-21T06:54:32.974Z,6.77
2018-07-21T06:57:01.603Z,6.70
2018-07-21T06:59:30.055Z,5.80
2018-07-21T07:01:58.709Z,6.00
2018-07-21T07:04:27.206Z,6.77
2018-07-21T07:06:55.635Z,7.03
2018-07-21T07:09:24.121Z,6.83
2018-07-21T07:11:55.993Z,6.60
2018-07-21T07:14:28.173Z,6.87
2018-07-21T07:16:56.610Z,7.30
2018-07-21T07:19:25.120Z,7.83
2018-07-21T07:21:54.272Z,8.03
2018-07-21T07:24:22.811Z,8.20
2018-07-21T07:26:51.255Z,8.13
2018-07-21T07:29:19.763Z,7.90
2018-07-21T07:31:48.203Z,9.43
2018-07-21T07:34:16.743Z,9.67
2018-07-21T07:36:45.275Z,9.10
2018-07-21T07:39:13.758Z,8.83
2018-07-21T07:41:42.194Z,8.60
2018-07-21T07:44:10.674Z,8.17
2018-07-21T07:46:39.614Z,8.37
2018-07-21T07:49:08.123Z,9.50
2018-07-21T07:51:36.595Z,8.77
2018-07-21T07:54:05.448Z,8.50
2018-07-21T07:56:34.256Z,7.67
2018-07-21T07:59:02.751Z,8.77
2018-07-21T08:01:31.259Z,11.27
2018-07-21T08:03:59.758Z,10.23
2018-07-21T08:06:28.645Z,10.67
2018-07-21T08:08:57.147Z,11.80
2018-07-21T08:11:25.617Z,11.53
2018-07-21T08:13:54.095Z,13.10
2018-07-21T08:16:22.544Z,13.20
2018-07-21T08:18:51.105Z,13.50
2018-07-21T08:21:19.564Z,15.40
2018-07-21T08:23:48.103Z,14.13
2018-07-21T08:26:16.704Z,14.20
2018-07-21T08:28:45.187Z,13.97
2018-07-21T08:31:13.643Z,15.03
2018-07-21T08:33:42.248Z,15.40
2018-07-21T08:36:10.729Z,14.10
2018-07-21T08:38:39.201Z,13.87
2018-07-21T08:41:09.397Z,14.83
2018-07-21T08:43:38.072Z,15.47
2018-07-21T08:46:06.576Z,14.40
2018-07-21T08:48:35.236Z,14.77
2018-07-21T08:51:03.764Z,15.00
2018-07-21T08:53:32.259Z,15.67
2018-07-21T08:56:00.801Z,14.83
2018-07-21T08:58:29.952Z,16.47
2018-07-21T09:00:58.512Z,17.60
2018-07-21T09:03:27.006Z,15.93
2018-07-21T09:05:55.491Z,16.93
2018-07-21T09:08:23.932Z,18.30
2018-07-21T09:10:52.418Z,19.30
2018-07-21T09:13:20.864Z,18.37
2018-07-21T09:15:49.741Z,18.07
2018-07-21T09:18:18.208Z,19.83
2018-07-21T09:20:46.680Z,18.87
2018-07-21T09:23:15.121Z,18.43
2018-07-21T09:25:44.002Z,20.00
2018-07-21T09:28:12.552Z,19.03
2018-07-21T09:30:41.231Z,18.93
2018-07-21T09:33:09.743Z,18.53
2018-07-21T09:35:38.294Z,19.00
2018-07-21T09:38:06.816Z,17.43
2018-07-21T09:40:35.339Z,19.17
2018-07-21T09:43:03.796Z,19.23
2018-07-21T09:45:32.284Z,18.87
2018-07-21T09:48:01.119Z,19.17
2018-07-21T09:50:29.607Z,19.37
2018-07-21T09:52:58.107Z,18.70
2018-07-21T09:55:26.643Z,17.70
2018-07-21T09:57:55.121Z,18.20
2018-07-21T10:00:28.964Z,18.13
2018-07-21T10:02:57.814Z,19.03
2018-07-21T10:05:26.666Z,19.50
2018-07-21T10:07:55.332Z,19.00
2018-07-21T10:10:23.829Z,19.47
2018-07-21T10:12:52.338Z,18.97
2018-07-21T10:15:20.829Z,18.77
2018-07-21T10:17:49.492Z,18.77
2018-07-21T10:20:17.961Z,18.93
2018-07-21T10:22:46.771Z,19.43
2018-07-21T10:25:22.206Z,17.93
2018-07-21T10:27:54.367Z,19.77
2018-07-21T10:30:22.942Z,17.93
2018-07-21T10:32:51.135Z,18.63
2018-07-21T10:35:19.633Z,18.57
2018-07-21T10:37:48.098Z,19.43
2018-07-21T10:40:16.664Z,15.97
2018-07-21T10:42:45.288Z,18.53
2018-07-21T10:45:14.118Z,17.50
2018-07-21T10:47:42.604Z,18.73
2018-07-21T10:50:11.144Z,16.20
2018-07-21T10:52:39.626Z,17.07
2018-07-21T10:55:08.131Z,16.73
2018-07-21T10:57:36.572Z,16.03
2018-07-21T11:00:05.595Z,17.10
2018-07-21T11:02:34.088Z,16.73
2018-07-21T11:05:02.581Z,17.73
2018-07-21T11:07:31.042Z,15.70
2018-07-21T11:09:59.472Z,14.33
2018-07-21T11:12:27.963Z,15.00
2018-07-21T11:14:56.429Z,16.03
2018-07-21T11:17:24.914Z,15.93
2018-07-21T11:19:53.419Z,17.63
2018-07-21T11:22:21.907Z,16.33
2018-07-21T11:24:50.377Z,17.43
2018-07-21T11:27:18.854Z,17.90
2018-07-21T11:29:47.325Z,16.77
2018-07-21T11:32:15.824Z,15.70
2018-07-21T11:34:44.318Z,14.37
2018-07-21T11:37:12.812Z,14.50
2018-07-21T11:39:41.282Z,13.07
2018-07-21T11:42:10.044Z,14.20
2018-07-21T11:44:38.614Z,15.23
2018-07-21T11:47:07.403Z,14.57
2018-07-21T11:49:36.230Z,17.40
2018-07-21T11:52:04.807Z,14.67
2018-07-21T11:54:33.291Z,16.23
2018-07-21T11:57:02.779Z,15.33
2018-07-21T11:59:32.324Z,14.47
2018-07-21T12:02:01.203Z,13.57
2018-07-21T12:04:31.211Z,15.43
2018-07-21T12:06:59.808Z,14.00
2018-07-21T12:09:27.942Z,14.27
2018-07-21T12:11:56.407Z,14.47
2018-07-21T12:14:24.904Z,13.00
2018-07-21T12:16:53.383Z,16.17
2018-07-21T12:19:21.892Z,15.20
2018-07-21T12:21:52.000Z,15.77
2018-07-21T12:24:22.218Z,14.97
2018-07-21T12:26:50.744Z,16.83
2018-07-21T12:29:19.339Z,15.57
2018-07-21T12:31:47.972Z,16.67
2018-07-21T12:34:16.609Z,12.23
2018-07-21T12:36:45.338Z,12.43
2018-07-21T12:39:13.858Z,13.30
2018-07-21T12:41:42.449Z,13.47
2018-07-21T12:44:12.011Z,13.27
2018-07-21T12:46:41.087Z,14.17
2018-07-21T12:49:09.775Z,14.60
2018-07-21T12:51:38.349Z,14.30
2018-07-21T12:54:06.911Z,15.20
2018-07-21T12:56:35.389Z,15.77
2018-07-21T12:59:37.854Z,16.80
2018-07-21T13:02:06.355Z,15.13
2018-07-21T13:04:36.054Z,12.60
2018-07-21T13:07:04.539Z,14.03
2018-07-21T13:09:33.037Z,13.93
2018-07-21T13:12:01.495Z,13.63
2018-07-21T13:14:30.049Z,12.57
2018-07-21T13:16:58.516Z,11.80
2018-07-21T13:19:27.007Z,11.97
2018-07-21T13:21:55.479Z,13.07
2018-07-21T13:24:23.961Z,13.57
2018-07-21T13:26:52.811Z,14.40
2018-07-21T13:29:21.294Z,13.70
2018-07-21T13:31:49.757Z,14.97
2018-07-21T13:34:18.296Z,12.30
2018-07-21T13:36:47.083Z,12.50
2018-07-21T13:39:15.588Z,12.37
2018-07-21T13:41:44.373Z,14.47
2018-07-21T13:44:12.891Z,14.87
2018-07-21T13:46:41.352Z,14.43
2018-07-21T13:49:09.846Z,12.40
2018-07-21T13:51:38.335Z,14.13
2018-07-21T13:54:06.845Z,12.73
2018-07-21T13:56:34.977Z,12.03
2018-07-21T13:59:03.856Z,13.20
2018-07-21T14:01:32.323Z,12.47
2018-07-21T14:04:00.814Z,12.13
2018-07-21T14:06:29.268Z,13.33
2018-07-21T14:08:57.749Z,13.33
2018-07-21T14:11:26.199Z,12.07
2018-07-21T14:13:54.697Z,11.33
2018-07-21T14:16:23.168Z,11.20
2018-07-21T14:18:51.646Z,12.30
2018-07-21T14:21:20.123Z,10.60
2018-07-21T14:23:48.667Z,12.10
2018-07-21T14:26:17.599Z,11.57
2018-07-21T14:28:46.075Z,11.27
2018-07-21T14:31:14.578Z,11.90
2018-07-21T14:33:43.277Z,11.67
2018-07-21T14:36:11.775Z,11.37
2018-07-21T14:38:40.428Z,12.57
2018-07-21T14:41:08.900Z,11.73
2018-07-21T14:43:37.382Z,13.23
2018-07-21T14:46:05.903Z,13.70
2018-07-21T14:48:34.424Z,14.37
2018-07-21T14:51:03.043Z,14.40
2018-07-21T14:53:31.506Z,14.03
2018-07-21T14:55:59.955Z,14.27
2018-07-21T14:58:28.444Z,14.10
2018-07-21T15:00:56.916Z,15.80
2018-07-21T15:03:25.399Z,15.73
2018-07-21T15:05:53.837Z,15.80
2018-07-21T15:08:22.331Z,16.60
2018-07-21T15:10:50.805Z,16.47
2018-07-21T15:13:19.318Z,17.13
2018-07-21T15:15:47.821Z,16.77
2018-07-21T15:18:16.406Z,18.60
2018-07-21T15:20:44.983Z,17.00
2018-07-21T15:23:13.480Z,17.90
2018-07-21T15:25:42.244Z,17.07
2018-07-21T15:28:10.460Z,17.27
2018-07-21T15:30:38.890Z,17.73
2018-07-21T15:33:07.463Z,17.80
2018-07-21T15:35:35.943Z,17.33
2018-07-21T15:38:04.381Z,16.43
2018-07-21T15:40:32.867Z,16.90
2018-07-21T15:43:01.315Z,17.23
2018-07-21T15:45:30.140Z,18.17
2018-07-21T15:47:58.604Z,17.57
2018-07-21T15:50:27.104Z,15.63
2018-07-21T15:52:55.561Z,14.50
2018-07-21T15:55:24.055Z,14.70
2018-07-21T15:57:52.680Z,15.40
2018-07-21T16:00:21.163Z,14.37
2018-07-21T16:02:49.628Z,14.07
2018-07-21T16:05:18.679Z,13.40
2018-07-21T16:07:47.177Z,16.23
2018-07-21T16:10:15.676Z,15.27
2018-07-21T16:12:44.448Z,14.97
2018-07-21T16:15:13.368Z,15.10
2018-07-21T16:17:41.631Z,13.77
2018-07-21T16:20:10.137Z,14.50
2018-07-21T16:22:38.953Z,14.83
2018-07-21T16:25:09.615Z,12.53
2018-07-21T16:27:38.068Z,13.70
2018-07-21T16:30:06.555Z,15.27
2018-07-21T16:32:35.107Z,14.27
2018-07-21T16:35:03.634Z,13.63
2018-07-21T16:37:32.431Z,12.20
2018-07-21T16:40:00.912Z,15.37
2018-07-21T16:42:29.360Z,14.70
2018-07-21T16:44:57.831Z,14.70
2018-07-21T16:47:26.274Z,14.90
2018-07-21T16:49:54.738Z,15.43
2018-07-21T16:52:23.171Z,14.57
2018-07-21T16:54:51.647Z,13.17
2018-07-21T16:57:19.784Z,12.27
2018-07-21T16:59:48.254Z,12.17
2018-07-21T17:02:16.705Z,13.40
2018-07-21T17:04:45.054Z,14.33
2018-07-21T17:07:13.491Z,14.03
2018-07-21T17:09:41.956Z,13.80
2018-07-21T17:12:10.456Z,15.03
2018-07-21T17:14:38.988Z,15.70
2018-07-21T17:17:07.488Z,15.97
2018-07-21T17:19:35.976Z,14.47
2018-07-21T17:22:05.115Z,16.97
2018-07-21T17:24:33.591Z,15.23
2018-07-21T17:27:02.032Z,13.93
2018-07-21T17:29:30.728Z,16.47
2018-07-21T17:31:59.352Z,16.33
2018-07-21T17:34:27.878Z,15.17
2018-07-21T17:36:56.507Z,14.83
2018-07-21T17:39:25.049Z,16.20
2018-07-21T17:41:53.634Z,14.67
2018-07-21T17:44:22.336Z,13.70
2018-07-21T17:46:50.795Z,13.70
2018-07-21T17:49:19.457Z,13.20
2018-07-21T17:51:47.944Z,14.07
2018-07-21T17:54:16.408Z,15.30
2018-07-21T17:56:44.887Z,13.97
2018-07-21T17:59:13.320Z,13.20
2018-07-21T18:01:41.814Z,14.97
2018-07-21T18:04:10.287Z,14.67
2018-07-21T18:06:38.926Z,15.13
2018-07-21T18:09:08.818Z,14.33
2018-07-21T18:11:37.291Z,14.80
2018-07-21T18:14:05.783Z,13.93
2018-07-21T18:16:34.259Z,12.43
2018-07-21T18:19:02.712Z,16.70
2018-07-21T18:21:31.179Z,16.70
2018-07-21T18:23:59.883Z,17.00
2018-07-21T18:26:28.363Z,17.13
2018-07-21T18:28:56.812Z,15.50
2018-07-21T18:31:25.276Z,14.80
2018-07-21T18:33:54.107Z,18.77
2018-07-21T18:36:22.588Z,18.77
2018-07-21T18:38:51.032Z,19.97
2018-07-21T18:41:19.492Z,19.80
2018-07-21T18:43:47.950Z,21.87
2018-07-21T18:46:16.548Z,22.10
2018-07-21T18:48:45.045Z,23.87
2018-07-21T18:51:13.490Z,23.73
2018-07-21T18:53:41.983Z,22.57
2018-07-21T18:56:10.756Z,21.07
2018-07-21T18:58:39.825Z,25.43
2018-07-21T19:01:09.280Z,24.50
2018-07-21T19:03:37.851Z,24.80
2018-07-21T19:06:07.655Z,25.43
2018-07-21T19:08:49.339Z,23.93
2018-07-21T19:11:18.238Z,25.83
2018-07-21T19:13:47.201Z,23.80
2018-07-21T19:16:21.785Z,21.53
2018-07-21T19:18:58.966Z,24.50
2018-07-21T19:21:34.099Z,21.80
2018-07-21T19:24:08.740Z,22.97
2018-07-21T19:26:44.781Z,22.80
2018-07-21T19:29:19.159Z,19.47
2018-07-21T19:31:53.990Z,21.93
2018-07-21T19:34:23.978Z,20.13
2018-07-21T19:36:53.251Z,20.67
2018-07-21T19:39:21.952Z,19.07
2018-07-21T19:41:55.772Z,18.90
2018-07-21T19:44:24.433Z,18.77
2018-07-21T19:46:55.029Z,17.07
2018-07-21T19:49:23.675Z,18.17
2018-07-21T19:51:52.951Z,18.67
2018-07-21T19:54:22.537Z,17.10
2018-07-21T19:56:51.065Z,19.50
2018-07-21T19:59:19.713Z,16.40
2018-07-21T20:01:48.290Z,19.07
2018-07-21T20:04:16.921Z,16.07
2018-07-21T20:06:45.536Z,16.93
2018-07-21T20:09:14.049Z,18.33
2018-07-21T20:11:42.680Z,17.33
2018-07-21T20:14:11.207Z,19.57
2018-07-21T20:16:39.782Z,18.30
2018-07-21T20:19:08.508Z,19.27
2018-07-21T20:21:38.298Z,16.73
2018-07-21T20:24:06.982Z,18.90
2018-07-21T20:26:36.163Z,18.17
2018-07-21T20:29:04.689Z,18.37
2018-07-21T20:31:33.719Z,17.23
2018-07-21T20:34:02.189Z,17.23
2018-07-21T20:36:31.604Z,18.93
2018-07-21T20:39:00.271Z,20.03
2018-07-21T20:41:28.872Z,16.83
2018-07-21T20:43:57.439Z,16.57
2018-07-21T20:46:26.049Z,18.77
2018-07-21T20:48:54.487Z,16.47
2018-07-21T20:51:25.661Z,18.70
2018-07-21T20:53:54.368Z,18.23
2018-07-21T20:56:23.666Z,17.53
2018-07-21T20:58:52.410Z,18.70
2018-07-21T21:01:21.205Z,21.30
2018-07-21T21:03:49.722Z,23.57
2018-07-21T21:06:18.865Z,23.90
2018-07-21T21:08:47.585Z,18.60
2018-07-21T21:11:16.280Z,21.57
2018-07-21T21:13:45.090Z,20.10
2018-07-21T21:16:13.600Z,23.53
2018-07-21T21:18:42.162Z,23.50
2018-07-21T21:21:10.655Z,20.57
2018-07-21T21:23:39.162Z,19.07
2018-07-21T21:26:07.644Z,21.63
2018-07-21T21:28:36.164Z,23.47
2018-07-21T21:31:04.678Z,20.67
2018-07-21T21:33:33.355Z,21.57
2018-07-21T21:36:01.804Z,21.27
2018-07-21T21:38:30.315Z,23.33
2018-07-21T21:40:58.767Z,21.90
2018-07-21T21:43:27.246Z,19.10
2018-07-21T21:45:55.736Z,22.37
2018-07-21T21:48:24.381Z,25.27
2018-07-21T21:50:53.027Z,20.47
2018-07-21T21:53:21.583Z,22.43
2018-07-21T21:55:50.097Z,24.27
2018-07-21T21:58:18.349Z,26.13
2018-07-21T22:01:04.432Z,25.83
2018-07-21T22:03:33.154Z,27.97
2018-07-21T22:06:01.705Z,28.00
2018-07-21T22:08:31.395Z,29.00
2018-07-21T22:11:00.136Z,29.30
2018-07-21T22:13:29.334Z,29.43
2018-07-21T22:15:58.247Z,29.63
2018-07-21T22:18:27.258Z,29.30
2018-07-21T22:20:55.941Z,30.97
2018-07-21T22:23:24.509Z,24.13
2018-07-21T22:25:53.005Z,26.23
2018-07-21T22:28:21.484Z,29.37
2018-07-21T22:30:50.035Z,31.07
2018-07-21T22:33:18.555Z,30.93
2018-07-21T22:35:47.088Z,33.03
2018-07-21T22:38:15.558Z,29.43
2018-07-21T22:40:44.052Z,30.47
2018-07-21T22:43:12.532Z,29.73
2018-07-21T22:45:41.016Z,27.27
2018-07-21T22:48:09.476Z,26.10
2018-07-21T22:50:37.987Z,25.53
2018-07-21T22:53:06.431Z,26.90
2018-07-21T22:55:34.894Z,26.03
2018-07-21T22:58:03.453Z,25.37
2018-07-21T23:00:31.975Z,24.53
2018-07-21T23:03:00.505Z,23.43
2018-07-21T23:05:28.979Z,23.67
2018-07-21T23:07:57.485Z,24.43
2018-07-21T23:10:25.967Z,23.23
2018-07-21T23:12:54.551Z,23.70
2018-07-21T23:15:23.242Z,22.43
2018-07-21T23:17:51.764Z,23.03
2018-07-21T23:20:20.239Z,22.30
2018-07-21T23:22:48.398Z,22.53
2018-07-21T23:25:16.875Z,22.83
2018-07-21T23:27:45.364Z,21.60
2018-07-21T23:30:13.829Z,25.43
2018-07-21T23:32:42.359Z,26.07
2018-07-21T23:35:10.820Z,27.00
2018-07-21T23:37:39.323Z,27.87
2018-07-21T23:40:08.198Z,29.10
2018-07-21T23:42:36.709Z,27.03
2018-07-21T23:45:05.593Z,26.90
2018-07-21T23:47:34.422Z,28.93
2018-07-21T23:50:02.919Z,28.10
2018-07-21T23:52:31.110Z,27.07
2018-07-21T23:54:59.626Z,27.93
2018-07-21T23:57:28.151Z,25.53
2018-07-21T23:59:56.615Z,29.00
